11 agosto 2022

Tempo Codice Tempo metereologico Temp. Vista Base nuvolosa Vento METAR/SPECI
18:20
V
31 °C 10 km+ - 020° 020° 7 kt METAR EDLN 111620Z 02007KT 340V070 CAVOK 31/09 Q1018
17:50
V
31 °C 10 km+ - 030° 030° 6 kt METAR EDLN 111550Z 03006KT 330V080 CAVOK 31/09 Q1019
17:20
V
32 °C 10 km+ - 020° 020° 6 kt METAR EDLN 111520Z 02006KT 320V080 CAVOK 32/08 Q1019
16:50
V
31 °C 10 km+ - 040° 040° 5 kt METAR EDLN 111450Z 04005KT 350V080 CAVOK 31/08 Q1019
16:20
V
32 °C 10 km+ - Var Var 4 kt METAR EDLN 111420Z VRB04KT CAVOK 32/10 Q1019
15:50
V
31 °C 10 km+ - Var Var 3 kt METAR EDLN 111350Z VRB03KT CAVOK 31/08 Q1020
14:50
V
31 °C 10 km+ - Var Var 3 kt METAR EDLN 111250Z VRB03KT CAVOK 31/09 Q1020
14:20
V
31 °C 10 km+ - Var Var 4 kt METAR EDLN 111220Z VRB04KT CAVOK 31/10 Q1021
13:50
V
30 °C 10 km+ - 050° 050° 6 kt METAR EDLN 111150Z 05006KT 010V110 CAVOK 30/08 Q1021
13:20
V
30 °C 10 km+ - Var Var 3 kt METAR EDLN 111120Z VRB03KT CAVOK 30/08 Q1021
12:50
V
29 °C 10 km+ - 090° 090° 4 kt METAR EDLN 111050Z 09004KT 040V140 CAVOK 29/08 Q1021
12:20
V
29 °C 10 km+ - 130° 130° 5 kt METAR EDLN 111020Z 13005KT 060V200 CAVOK 29/08 Q1022
11:50
V
29 °C 10 km+ - 100° 100° 4 kt METAR EDLN 110950Z 10004KT 060V180 CAVOK 29/10 Q1022
11:20
V
27 °C 10 km+ - 120° 120° 5 kt METAR EDLN 110920Z 12005KT 070V180 CAVOK 27/09 Q1022
10:50
V
26 °C 10 km+ - 130° 130° 4 kt METAR EDLN 110850Z 13004KT 090V180 CAVOK 26/11 Q1022
10:20
V
26 °C 10 km+ - 120° 120° 5 kt METAR EDLN 110820Z 12005KT 090V160 CAVOK 26/11 Q1022
09:50
V
24 °C 10 km+ - 120° 120° 6 kt METAR EDLN 110750Z 12006KT 100V160 CAVOK 24/11 Q1022
09:20
V
23 °C 10 km+ - 120° 120° 5 kt METAR EDLN 110720Z 12005KT 090V160 CAVOK 23/11 Q1022
08:50
V
22 °C 10 km+ - 090° 090° 2 kt METAR EDLN 110650Z 09002KT CAVOK 22/12 Q1022
08:20
V
20 °C 10 km+ - Var 000° 0 kt METAR EDLN 110620Z 00000KT CAVOK 20/13 Q1022
07:50
V
19 °C 10 km+ - Var 000° 0 kt METAR EDLN 110550Z 00000KT CAVOK 19/14 Q1022
07:20
V
16 °C 10 km+ - Var Var 1 kt METAR EDLN 110520Z AUTO VRB01KT 9999 // NCD 16/13 Q1022
06:50
V
13 °C 10 km+ - Var Var 1 kt METAR EDLN 110450Z AUTO VRB01KT 9999 // NCD 13/11 Q1022
06:20
V
13 °C 10 km+ - 340° 340° 1 kt METAR EDLN 110420Z AUTO 34001KT 9999 // NCD 13/11 Q1022
05:50
V
13 °C 10 km+ - Var 000° 0 kt METAR EDLN 110350Z AUTO 00000KT 9999 // NCD 13/11 Q1022
04:20
V
14 °C 10 km+ - Var Var 1 kt METAR EDLN 110220Z AUTO VRB01KT 9999 // NCD 14/11 Q1022
03:50
V
14 °C 10 km+ - Var 000° 0 kt METAR EDLN 110150Z AUTO 00000KT 9999 // NCD 14/12 Q1022
03:20
V
15 °C 10 km+ - Var Var 1 kt METAR EDLN 110120Z AUTO VRB01KT 9999 // NCD 15/11 Q1022
02:50
V
16 °C 10 km+ - Var Var 1 kt METAR EDLN 110050Z AUTO VRB01KT 9999 // NCD 16/11 Q1022
02:20
V
18 °C 10 km+ - Var Var 2 kt METAR EDLN 110020Z AUTO VRB02KT 9999 // NCD 18/10 Q1022
01:50
V
19 °C 10 km+ - 050° 050° 3 kt METAR EDLN 102350Z AUTO 05003KT 9999 // NCD 19/10 Q1022
01:20
V
20 °C 10 km+ - 050° 050° 3 kt METAR EDLN 102320Z AUTO 05003KT 9999 // NCD 20/10 Q1022
00:50
V
21 °C 10 km+ - 060° 060° 3 kt METAR EDLN 102250Z AUTO 06003KT 020V090 9999 // NCD 21/11 Q1022
00:20
V
22 °C 10 km+ - 040° 040° 4 kt METAR EDLN 102220Z AUTO 04004KT 9999 // NCD 22/10 Q1022

10 agosto 2022

Tempo Codice Tempo metereologico Temp. Vista Base nuvolosa Vento METAR/SPECI
23:50
V
22 °C 10 km+ - 030° 030° 4 kt METAR EDLN 102150Z AUTO 03004KT 9999 // NCD 22/10 Q1022
23:20
V
23 °C 10 km+ - 040° 040° 4 kt METAR EDLN 102120Z AUTO 04004KT 9999 // NCD 23/10 Q1022
22:50
V
20 °C 10 km+ - 020° 020° 3 kt METAR EDLN 102050Z AUTO 02003KT 9999 // NCD 20/11 Q1022
22:20
V
24 °C 10 km+ - 040° 040° 3 kt METAR EDLN 102020Z AUTO 04003KT 9999 // NCD 24/09 Q1022
21:50
V
25 °C 10 km+ - 040° 040° 4 kt METAR EDLN 101950Z AUTO 04004KT 9999 // NCD 25/09 Q1022
21:20
V
26 °C 10 km+ - 050° 050° 4 kt METAR EDLN 101920Z AUTO 05004KT 020V080 9999 // NCD 26/09 Q1022
20:50
V
26 °C 10 km+ - 050° 050° 3 kt METAR EDLN 101850Z AUTO 05003KT 020V090 9999 // NCD 26/09 Q1022
20:20
V
28 °C 10 km+ - 060° 060° 5 kt METAR EDLN 101820Z 06005KT 020V080 CAVOK 28/08 Q1022
19:50
V
29 °C 10 km+ - 050° 050° 6 kt METAR EDLN 101750Z 05006KT 010V090 CAVOK 29/09 Q1022
19:20
V
29 °C 10 km+ - 040° 040° 7 kt METAR EDLN 101720Z 04007KT 350V090 CAVOK 29/09 Q1022
18:50
V
30 °C 10 km+ - 040° 040° 7 kt METAR EDLN 101650Z 04007KT 360V070 CAVOK 30/09 Q1022
18:20
V
30 °C 10 km+ - 030° 030° 7 kt METAR EDLN 101620Z 03007KT 340V090 CAVOK 30/09 Q1022
17:50
V
30 °C 10 km+ - 040° 040° 7 kt METAR EDLN 101550Z 04007KT 350V070 CAVOK 30/09 Q1022
17:20
V
30 °C 10 km+ - 040° 040° 7 kt METAR EDLN 101520Z 04007KT 340V080 CAVOK 30/09 Q1022
16:50
V
30 °C 10 km+ - 050° 050° 7 kt METAR EDLN 101450Z 05007KT 330V110 CAVOK 30/09 Q1022
16:20
V
30 °C 10 km+ - 040° 040° 8 kt METAR EDLN 101420Z 04008KT 350V090 CAVOK 30/10 Q1023
15:50
V
30 °C 10 km+ - 030° 030° 7 kt METAR EDLN 101350Z 03007KT 340V070 CAVOK 30/10 Q1023
15:20
V
30 °C 10 km+ - 060° 060° 7 kt METAR EDLN 101320Z 06007KT 310V110 CAVOK 30/10 Q1023
14:50
V
30 °C 10 km+ - Var Var 5 kt METAR EDLN 101250Z VRB05KT CAVOK 30/11 Q1023
14:20
V
30 °C 10 km+ - 060° 060° 6 kt METAR EDLN 101220Z 06006KT 010V110 CAVOK 30/10 Q1024
13:50
V
29 °C 10 km+ - Var Var 4 kt METAR EDLN 101150Z VRB04KT CAVOK 29/10 Q1024
13:20
V
29 °C 10 km+ - 090° 090° 7 kt METAR EDLN 101120Z 09007KT 020V130 CAVOK 29/10 Q1024
12:50
V
28 °C 10 km+ - 060° 060° 7 kt METAR EDLN 101050Z 06007KT 010V120 CAVOK 28/10 Q1025
12:20
V
28 °C 10 km+ - 050° 050° 6 kt METAR EDLN 101020Z 05006KT 360V120 CAVOK 28/10 Q1025
11:50
V
27 °C 10 km+ - 050° 050° 3 kt METAR EDLN 100950Z 05003KT 300V110 CAVOK 27/11 Q1025
11:20
V
26 °C 10 km+ - Var Var 2 kt METAR EDLN 100920Z VRB02KT CAVOK 26/12 Q1025
10:50
V
25 °C 10 km+ - 050° 050° 4 kt METAR EDLN 100850Z 05004KT 010V140 CAVOK 25/12 Q1026
10:20
V
24 °C 10 km+ - 030° 030° 4 kt METAR EDLN 100820Z 03004KT 350V080 CAVOK 24/11 Q1026
09:50
V
23 °C 10 km+ - 040° 040° 4 kt METAR EDLN 100750Z 04004KT 360V090 CAVOK 23/12 Q1026
09:20
V
22 °C 10 km+ - 040° 040° 3 kt METAR EDLN 100720Z 04003KT 350V100 CAVOK 22/13 Q1026
08:50
V
20 °C 10 km+ - 040° 040° 4 kt METAR EDLN 100650Z 04004KT 360V060 CAVOK 20/13 Q1026
08:20
V
19 °C 10 km+ - 030° 030° 5 kt METAR EDLN 100620Z 03005KT 360V070 CAVOK 19/13 Q1026
07:50
V
19 °C 10 km+ - 030° 030° 3 kt METAR EDLN 100550Z 03003KT 350V090 CAVOK 19/13 Q1026
07:20
V
17 °C 10 km+ - Var Var 2 kt METAR EDLN 100520Z AUTO VRB02KT 9999 // NCD 17/13 Q1025
06:50
V
15 °C 10 km+ - 320° 320° 3 kt METAR EDLN 100450Z AUTO 32003KT 9999 // NCD 15/13 Q1025
06:20
V
14 °C 10 km+ - 320° 320° 3 kt METAR EDLN 100420Z AUTO 32003KT 300V360 9999 // NCD 14/12 Q1025
05:50
V
16 °C 10 km+ - 350° 350° 3 kt METAR EDLN 100350Z AUTO 35003KT 320V020 9999 // NCD 16/12 Q1025
05:20
V
16 °C 10 km+ - Var Var 1 kt METAR EDLN 100320Z AUTO VRB01KT 9999 // NCD 16/12 Q1025
04:50
V
17 °C 10 km+ - Var Var 2 kt METAR EDLN 100250Z AUTO VRB02KT 9999 // NCD 17/12 Q1025
04:20
V
18 °C 10 km+ - Var Var 2 kt METAR EDLN 100220Z AUTO VRB02KT 9999 // NCD 18/12 Q1025
03:50
V
18 °C 10 km+ - Var Var 2 kt METAR EDLN 100150Z AUTO VRB02KT 9999 // NCD 18/12 Q1025
03:20
V
19 °C 10 km+ - 010° 010° 4 kt METAR EDLN 100120Z AUTO 01004KT 340V040 9999 // NCD 19/12 Q1026
02:50
V
19 °C 10 km+ - 030° 030° 4 kt METAR EDLN 100050Z AUTO 03004KT 350V050 9999 // NCD 19/12 Q1026
02:20
V
20 °C 10 km+ - 030° 030° 4 kt METAR EDLN 100020Z AUTO 03004KT 350V070 9999 // NCD 20/12 Q1026
01:50
V
21 °C 10 km+ - 020° 020° 4 kt METAR EDLN 092350Z AUTO 02004KT 340V050 9999 // NCD 21/12 Q1026
01:20
V
21 °C 10 km+ - 020° 020° 5 kt METAR EDLN 092320Z AUTO 02005KT 340V040 9999 // NCD 21/11 Q1026
00:50
V
21 °C 10 km+ - 010° 010° 5 kt METAR EDLN 092250Z AUTO 01005KT 340V040 9999 // NCD 21/11 Q1026
00:20
V
21 °C 10 km+ - 020° 020° 5 kt METAR EDLN 092220Z AUTO 02005KT 350V060 9999 // NCD 21/11 Q1026

9 agosto 2022

Tempo Codice Tempo metereologico Temp. Vista Base nuvolosa Vento METAR/SPECI
23:50
V
22 °C 10 km+ - 010° 010° 3 kt METAR EDLN 092150Z AUTO 01003KT 340V050 9999 // NCD 22/11 Q1026
23:20
V
22 °C 10 km+ - 030° 030° 4 kt METAR EDLN 092120Z AUTO 03004KT 9999 // NCD 22/11 Q1026
22:50
V
23 °C 10 km+ - 030° 030° 5 kt METAR EDLN 092050Z AUTO 03005KT 360V070 9999 // NCD 23/11 Q1026
22:20
V
23 °C 10 km+ - 020° 020° 4 kt METAR EDLN 092020Z AUTO 02004KT 9999 // NCD 23/11 Q1026
21:50
V
24 °C 10 km+ - 020° 020° 4 kt METAR EDLN 091950Z AUTO 02004KT 340V050 9999 // NCD 24/11 Q1026
21:20
V
25 °C 10 km+ - 020° 020° 5 kt METAR EDLN 091920Z AUTO 02005KT 340V040 9999 // NCD 25/11 Q1025
20:50
V
25 °C 10 km+ - 030° 030° 5 kt METAR EDLN 091850Z AUTO 03005KT 350V050 9999 // NCD 25/11 Q1025
20:20
V
26 °C 10 km+ - 030° 030° 8 kt METAR EDLN 091820Z 03008KT 360V060 CAVOK 26/11 Q1025
19:50
V
27 °C 10 km+ - 040° 040° 8 kt METAR EDLN 091750Z 04008KT 350V080 CAVOK 27/11 Q1025
19:20
V
27 °C 10 km+ - 040° 040° 6 kt METAR EDLN 091720Z 04006KT 340V080 CAVOK 27/11 Q1025
18:50
V
28 °C 10 km+ - 040° 040° 6 kt METAR EDLN 091650Z 04006KT 360V080 CAVOK 28/10 Q1025
18:20
V
28 °C 10 km+ - 050° 050° 6 kt METAR EDLN 091620Z 05006KT 360V110 CAVOK 28/10 Q1025
17:50
V
28 °C 10 km+ - 030° 030° 5 kt METAR EDLN 091550Z 03005KT 350V090 CAVOK 28/09 Q1025
17:20
V
28 °C 10 km+ - 040° 040° 6 kt METAR EDLN 091520Z 04006KT 320V100 CAVOK 28/11 Q1025
16:50
V
28 °C 10 km+ - 050° 050° 6 kt METAR EDLN 091450Z 05006KT CAVOK 28/10 Q1025
Dati più vecchi

Noi e le terze parti seguiamo il tuo comportamento in internet sul nostro sito web con i cookie. Se continui, riteniamo che tu sia d'accordo con la nostra politica sui cookie. Per saperne di più